Terminal Aerodrome Forecast
Issued by NWS

Home | Current Version | Previous Version | Text Only | Print | Product List | Glossary On
Versions: 1 2 3 4 5 6 7 8 9 10 11 12 13 14 15 16 17 18 19 20 21
000
FTUS43 KMKX 290528
TAFUES
TAF
KUES 290528Z 2906/3006 18011G20KT 6SM TSRA OVC060CB WS020/22045KT
     FM290800 22011G20KT P6SM VCTS BKN050CB WS020/24045KT
     FM291000 23011G21KT P6SM BKN020 WS020/25042KT
     FM291300 24011KT P6SM SCT040
     FM292000 25013KT P6SM VCTS BKN050CB
     FM300000 26009KT P6SM BKN050
     FM300200 25005KT P6SM BKN100=

USA.gov is the U.S. government's official web portal to all federal, state and local government web resources and services.